Terminal Aerodrome Forecast
Issued by NWS

Home | Current Version | Previous Version | Text Only | Print | Product List | Glossary On
Versions: 1 2 3 4 5 6 7 8 9 10 11 12 13 14 15
000
FTUS45 KSLC 060539
TAFSGU
TAF
KSGU 060539Z 0606/0706 VRB06KT P6SM BKN200
     FM061700 20013G23KT P6SM SCT080 BKN200
     FM062100 24013G23KT P6SM VCSH BKN080 OVC140
     FM070100 24010KT P6SM SCT080 BKN140
      AMD LTD TO CLD VIS AND WIND=

USA.gov is the U.S. government's official web portal to all federal, state and local government web resources and services.